This is the latest recevied weather packets stored in our database for station/object S50APT-10. If no packets are shown the sender has not sent any weather packets the latest 10 day(s).
| Time | Temp. | Humidity | Pressure | Rain* | Wind** | Luminosity | Snow |
|---|---|---|---|---|---|---|---|
| 1777806875 | 30.56° C | 22% | 1021.1 hPa | - | - | - | - |
| 1777805975 | 32.22° C | 19% | 1021.2 hPa | - | - | - | - |
| 1777805074 | 29.44° C | 23% | 1021.4 hPa | - | - | - | - |
| 1777804174 | 27.78° C | 24% | 1021.6 hPa | - | - | - | - |
| 1777803273 | 26.11° C | 28% | 1021.7 hPa | - | - | - | - |
| 1777802372 | 27.22° C | 25% | 1021.7 hPa | - | - | - | - |
| 1777801471 | 26.67° C | 29% | 1021.8 hPa | - | - | - | - |
| 1777800571 | 28.89° C | 27% | 1022 hPa | - | - | - | - |
| 1777799670 | 29.44° C | 26% | 1022 hPa | - | - | - | - |
| 1777798770 | 27.78° C | 30% | 1022.1 hPa | - | - | - | - |
| 1777797869 | 27.22° C | 28% | 1022 hPa | - | - | - | - |
| 1777797199 | 26.11° C | 30% | 1022.1 hPa | - | - | - | - |
| 1777796968 | 26.11° C | 30% | 1022.1 hPa | - | - | - | - |
| 1777796068 | 27.22° C | 29% | 1022 hPa | - | - | - | - |
| 1777795167 | 26.67° C | 30% | 1022.1 hPa | - | - | - | - |
| 1777794265 | 26.11° C | 33% | 1022 hPa | - | - | - | - |
| 1777793365 | 24.44° C | 35% | 1022 hPa | - | - | - | - |
| 1777792464 | 21.67° C | 38% | 1022 hPa | - | - | - | - |
| 1777791634 | 24.44° C | 37% | 1021.9 hPa | - | - | - | - |
| 1777791564 | 24.44° C | 37% | 1021.9 hPa | - | - | - | - |
| 1777790663 | 22.22° C | 39% | 1021.8 hPa | - | - | - | - |
| 1777789763 | 18.89° C | 41% | 1021.8 hPa | - | - | - | - |
| 1777788862 | 20° C | 39% | 1021.7 hPa | - | - | - | - |
| 1777787962 | 20° C | 40% | 1021.6 hPa | - | - | - | - |
| 1777787061 | 18.33° C | 43% | 1021.4 hPa | - | - | - | - |
* Rain since midnight (hover to see other rain measurements)
** Current wind speed in m/s (hover to see current wind gust speed)